St Ives Cambridgeshire, United Kingdom
Current Conditions -  °F | °C
As of 9:20 AM on Friday 28 Nov 2014 (Local Time) from EGSC Reporting Station
Overcast Overcast  
Wind Chill: 11°   Ceiling: 600
Heat Index: 11°   Visibility: 4mi
Dew Point: 10°   Wind: 6mph
Humidity: 94%   Direction: 60°ENE
Pressure: 29.65"   Gusts: NA
Location:  52.34°N, 0.07°W
Report Text: EGSC 280920Z 06005KT 020V110 7000 OVC006 11/10 Q1004
Loading
Personal Weather Stations






























Interactive Weather Map New forecast layout! Learn more

10-Day Weather Forecast

Advertisements
Track Severe Weather on mobile